sensor_id;sensor_type;location;lat;lon;timestamp;temperature;humidity
21033;DHT22;10675;47.976;7.824;2023-04-03T00:01:31;6.60;99.90
21033;DHT22;10675;47.976;7.824;2023-04-03T00:03:58;6.50;99.90
21033;DHT22;10675;47.976;7.824;2023-04-03T00:06:24;6.50;99.90
21033;DHT22;10675;47.976;7.824;2023-04-03T00:08:50;6.30;99.90
21033;DHT22;10675;47.976;7.824;2023-04-03T00:11:17;6.40;99.90
21033;DHT22;10675;47.976;7.824;2023-04-03T00:13:43;6.40;99.90
21033;DHT22;10675;47.976;7.824;2023-04-03T00:16:09;6.40;99.90
21033;DHT22;10675;47.976;7.824;2023-04-03T00:18:36;6.50;99.90
21033;DHT22;10675;47.976;7.824;2023-04-03T00:21:03;6.60;99.90
21033;DHT22;10675;47.976;7.824;2023-04-03T00:23:28;6.60;99.90
21033;DHT22;10675;47.976;7.824;2023-04-03T00:25:54;6.60;99.90
21033;DHT22;10675;47.976;7.824;2023-04-03T00:28:20;6.50;99.90
21033;DHT22;10675;47.976;7.824;2023-04-03T00:30:46;6.40;99.90
21033;DHT22;10675;47.976;7.824;2023-04-03T00:33:13;6.50;99.90
21033;DHT22;10675;47.976;7.824;2023-04-03T00:35:39;6.50;99.90
21033;DHT22;10675;47.976;7.824;2023-04-03T00:38:05;6.40;99.90
21033;DHT22;10675;47.976;7.824;2023-04-03T00:40:35;6.30;99.90
21033;DHT22;10675;47.976;7.824;2023-04-03T00:43:01;6.40;99.90
21033;DHT22;10675;47.976;7.824;2023-04-03T00:45:31;6.40;99.90
21033;DHT22;10675;47.976;7.824;2023-04-03T00:47:57;6.30;99.90
21033;DHT22;10675;47.976;7.824;2023-04-03T00:50:26;6.40;99.90
21033;DHT22;10675;47.976;7.824;2023-04-03T00:52:52;6.40;99.90
21033;DHT22;10675;47.976;7.824;2023-04-03T00:55:18;6.40;99.90
21033;DHT22;10675;47.976;7.824;2023-04-03T00:57:45;6.20;99.90
21033;DHT22;10675;47.976;7.824;2023-04-03T01:00:14;6.00;99.90
21033;DHT22;10675;47.976;7.824;2023-04-03T01:02:41;5.90;99.90
21033;DHT22;10675;47.976;7.824;2023-04-03T01:05:07;6.00;99.90
21033;DHT22;10675;47.976;7.824;2023-04-03T01:07:33;6.10;99.90
21033;DHT22;10675;47.976;7.824;2023-04-03T01:10:02;6.00;99.90
21033;DHT22;10675;47.976;7.824;2023-04-03T01:12:33;6.20;99.90
21033;DHT22;10675;47.976;7.824;2023-04-03T01:15:02;6.20;99.90
21033;DHT22;10675;47.976;7.824;2023-04-03T01:17:37;6.20;99.90
21033;DHT22;10675;47.976;7.824;2023-04-03T01:20:26;6.00;99.90
21033;DHT22;10675;47.976;7.824;2023-04-03T01:25:38;6.10;99.90
21033;DHT22;10675;47.976;7.824;2023-04-03T01:28:09;6.20;99.90
21033;DHT22;10675;47.976;7.824;2023-04-03T01:33:11;6.20;99.90
21033;DHT22;10675;47.976;7.824;2023-04-03T01:35:37;6.20;99.90
21033;DHT22;10675;47.976;7.824;2023-04-03T01:38:03;6.20;99.90
21033;DHT22;10675;47.976;7.824;2023-04-03T01:40:28;6.10;99.90
21033;DHT22;10675;47.976;7.824;2023-04-03T01:42:54;6.10;99.90
21033;DHT22;10675;47.976;7.824;2023-04-03T01:45:19;6.00;99.90
21033;DHT22;10675;47.976;7.824;2023-04-03T01:47:45;6.10;99.90
21033;DHT22;10675;47.976;7.824;2023-04-03T01:50:10;6.20;99.90
21033;DHT22;10675;47.976;7.824;2023-04-03T01:52:36;6.20;99.90
21033;DHT22;10675;47.976;7.824;2023-04-03T01:55:01;6.10;99.90
21033;DHT22;10675;47.976;7.824;2023-04-03T01:57:27;6.20;99.90
21033;DHT22;10675;47.976;7.824;2023-04-03T01:59:52;6.10;99.90
21033;DHT22;10675;47.976;7.824;2023-04-03T02:02:18;6.00;99.90
21033;DHT22;10675;47.976;7.824;2023-04-03T02:04:45;6.00;99.90
21033;DHT22;10675;47.976;7.824;2023-04-03T02:07:11;6.00;99.90
21033;DHT22;10675;47.976;7.824;2023-04-03T02:09:36;6.10;99.90
21033;DHT22;10675;47.976;7.824;2023-04-03T02:12:02;6.10;99.90
21033;DHT22;10675;47.976;7.824;2023-04-03T02:14:28;5.90;99.90
21033;DHT22;10675;47.976;7.824;2023-04-03T02:16:54;5.90;99.90
21033;DHT22;10675;47.976;7.824;2023-04-03T02:19:19;5.90;99.90
21033;DHT22;10675;47.976;7.824;2023-04-03T02:21:45;5.90;99.90
21033;DHT22;10675;47.976;7.824;2023-04-03T02:24:10;5.80;99.90
21033;DHT22;10675;47.976;7.824;2023-04-03T02:26:36;5.70;99.90
21033;DHT22;10675;47.976;7.824;2023-04-03T02:29:02;5.80;99.90
21033;DHT22;10675;47.976;7.824;2023-04-03T02:31:28;5.70;99.90
21033;DHT22;10675;47.976;7.824;2023-04-03T02:33:53;5.70;99.90
21033;DHT22;10675;47.976;7.824;2023-04-03T02:36:19;5.60;99.90
21033;DHT22;10675;47.976;7.824;2023-04-03T02:38:44;5.60;99.90
21033;DHT22;10675;47.976;7.824;2023-04-03T02:41:11;5.60;99.90
21033;DHT22;10675;47.976;7.824;2023-04-03T02:43:38;5.70;99.90
21033;DHT22;10675;47.976;7.824;2023-04-03T02:46:04;5.60;99.90
21033;DHT22;10675;47.976;7.824;2023-04-03T02:48:30;5.60;99.90
21033;DHT22;10675;47.976;7.824;2023-04-03T02:50:55;5.60;99.90
21033;DHT22;10675;47.976;7.824;2023-04-03T02:53:21;5.60;99.90
21033;DHT22;10675;47.976;7.824;2023-04-03T02:55:48;5.60;99.90
21033;DHT22;10675;47.976;7.824;2023-04-03T02:58:13;5.70;99.90
21033;DHT22;10675;47.976;7.824;2023-04-03T03:00:40;5.70;99.90
21033;DHT22;10675;47.976;7.824;2023-04-03T03:03:05;5.60;99.90
21033;DHT22;10675;47.976;7.824;2023-04-03T03:05:31;5.40;99.90
21033;DHT22;10675;47.976;7.824;2023-04-03T03:07:57;5.50;99.90
21033;DHT22;10675;47.976;7.824;2023-04-03T03:10:22;5.30;99.90
21033;DHT22;10675;47.976;7.824;2023-04-03T03:12:48;5.30;99.90
21033;DHT22;10675;47.976;7.824;2023-04-03T03:15:14;5.30;99.90
21033;DHT22;10675;47.976;7.824;2023-04-03T03:17:40;5.30;99.90
21033;DHT22;10675;47.976;7.824;2023-04-03T03:20:06;5.30;99.90
21033;DHT22;10675;47.976;7.824;2023-04-03T03:22:33;5.30;99.90
21033;DHT22;10675;47.976;7.824;2023-04-03T03:24:59;5.30;99.90
21033;DHT22;10675;47.976;7.824;2023-04-03T03:27:26;5.30;99.90
21033;DHT22;10675;47.976;7.824;2023-04-03T03:29:51;5.20;99.90
21033;DHT22;10675;47.976;7.824;2023-04-03T03:32:17;5.30;99.90
21033;DHT22;10675;47.976;7.824;2023-04-03T03:34:42;5.30;99.90
21033;DHT22;10675;47.976;7.824;2023-04-03T03:37:08;5.20;99.90
21033;DHT22;10675;47.976;7.824;2023-04-03T03:39:33;5.10;99.90
21033;DHT22;10675;47.976;7.824;2023-04-03T03:41:59;5.20;99.90
21033;DHT22;10675;47.976;7.824;2023-04-03T03:44:24;5.20;99.90
21033;DHT22;10675;47.976;7.824;2023-04-03T03:46:50;5.30;99.90
21033;DHT22;10675;47.976;7.824;2023-04-03T03:49:16;5.40;99.90
21033;DHT22;10675;47.976;7.824;2023-04-03T03:51:41;5.40;99.90
21033;DHT22;10675;47.976;7.824;2023-04-03T03:54:07;5.40;99.90
21033;DHT22;10675;47.976;7.824;2023-04-03T03:56:33;5.30;99.90
21033;DHT22;10675;47.976;7.824;2023-04-03T03:58:59;5.30;99.90
21033;DHT22;10675;47.976;7.824;2023-04-03T04:01:24;5.30;99.90
21033;DHT22;10675;47.976;7.824;2023-04-03T04:03:50;5.30;99.90
21033;DHT22;10675;47.976;7.824;2023-04-03T04:06:15;5.40;99.90
21033;DHT22;10675;47.976;7.824;2023-04-03T04:08:41;5.40;99.90
21033;DHT22;10675;47.976;7.824;2023-04-03T04:11:07;5.40;99.90
21033;DHT22;10675;47.976;7.824;2023-04-03T04:13:33;5.50;99.90
21033;DHT22;10675;47.976;7.824;2023-04-03T04:15:59;5.50;99.90
21033;DHT22;10675;47.976;7.824;2023-04-03T04:18:24;5.50;99.90
21033;DHT22;10675;47.976;7.824;2023-04-03T04:20:50;5.50;99.90
21033;DHT22;10675;47.976;7.824;2023-04-03T04:23:17;5.50;99.90
21033;DHT22;10675;47.976;7.824;2023-04-03T04:25:47;5.50;99.90
21033;DHT22;10675;47.976;7.824;2023-04-03T04:28:13;5.40;99.90
21033;DHT22;10675;47.976;7.824;2023-04-03T04:30:39;5.40;99.90
21033;DHT22;10675;47.976;7.824;2023-04-03T04:33:04;5.40;99.90
21033;DHT22;10675;47.976;7.824;2023-04-03T04:35:30;5.50;99.90
21033;DHT22;10675;47.976;7.824;2023-04-03T04:37:56;5.40;99.90
21033;DHT22;10675;47.976;7.824;2023-04-03T04:40:22;5.40;99.90
21033;DHT22;10675;47.976;7.824;2023-04-03T04:42:47;5.30;99.90
21033;DHT22;10675;47.976;7.824;2023-04-03T04:45:13;5.30;99.90
21033;DHT22;10675;47.976;7.824;2023-04-03T04:47:40;5.40;99.90
21033;DHT22;10675;47.976;7.824;2023-04-03T04:50:06;5.30;99.90
21033;DHT22;10675;47.976;7.824;2023-04-03T04:52:32;5.30;99.90
21033;DHT22;10675;47.976;7.824;2023-04-03T04:54:57;5.30;99.90
21033;DHT22;10675;47.976;7.824;2023-04-03T04:57:23;5.30;99.90
21033;DHT22;10675;47.976;7.824;2023-04-03T04:59:48;5.30;99.90
21033;DHT22;10675;47.976;7.824;2023-04-03T05:02:14;5.40;99.90
21033;DHT22;10675;47.976;7.824;2023-04-03T05:04:40;5.40;99.90
21033;DHT22;10675;47.976;7.824;2023-04-03T05:07:06;5.50;99.90
21033;DHT22;10675;47.976;7.824;2023-04-03T05:09:31;5.40;99.90
21033;DHT22;10675;47.976;7.824;2023-04-03T05:11:57;5.40;99.90
21033;DHT22;10675;47.976;7.824;2023-04-03T05:14:22;5.40;99.90
21033;DHT22;10675;47.976;7.824;2023-04-03T05:16:48;5.50;99.90
21033;DHT22;10675;47.976;7.824;2023-04-03T05:19:14;5.30;99.90
21033;DHT22;10675;47.976;7.824;2023-04-03T05:21:40;5.60;99.90
21033;DHT22;10675;47.976;7.824;2023-04-03T05:24:05;5.60;99.90
21033;DHT22;10675;47.976;7.824;2023-04-03T05:26:34;5.50;99.90
21033;DHT22;10675;47.976;7.824;2023-04-03T05:29:00;5.50;99.90
21033;DHT22;10675;47.976;7.824;2023-04-03T05:31:25;5.50;99.90
21033;DHT22;10675;47.976;7.824;2023-04-03T05:33:51;5.50;99.90
21033;DHT22;10675;47.976;7.824;2023-04-03T05:36:17;5.50;99.90
21033;DHT22;10675;47.976;7.824;2023-04-03T05:38:42;5.40;99.90
21033;DHT22;10675;47.976;7.824;2023-04-03T05:41:08;5.50;99.90
21033;DHT22;10675;47.976;7.824;2023-04-03T05:43:33;5.50;99.90
21033;DHT22;10675;47.976;7.824;2023-04-03T05:45:59;6.20;99.90
21033;DHT22;10675;47.976;7.824;2023-04-03T05:48:25;5.50;99.90
21033;DHT22;10675;47.976;7.824;2023-04-03T05:50:51;5.50;99.90
21033;DHT22;10675;47.976;7.824;2023-04-03T05:53:28;5.50;99.90
21033;DHT22;10675;47.976;7.824;2023-04-03T05:55:54;5.30;99.90
21033;DHT22;10675;47.976;7.824;2023-04-03T05:58:20;5.60;99.90
21033;DHT22;10675;47.976;7.824;2023-04-03T06:00:46;5.60;99.90
21033;DHT22;10675;47.976;7.824;2023-04-03T06:03:11;5.60;99.90
21033;DHT22;10675;47.976;7.824;2023-04-03T06:05:37;5.60;99.90
21033;DHT22;10675;47.976;7.824;2023-04-03T06:08:02;5.70;99.90
21033;DHT22;10675;47.976;7.824;2023-04-03T06:10:28;5.60;99.90
21033;DHT22;10675;47.976;7.824;2023-04-03T06:12:54;5.70;99.90
21033;DHT22;10675;47.976;7.824;2023-04-03T06:15:20;5.70;99.90
21033;DHT22;10675;47.976;7.824;2023-04-03T06:17:46;5.70;99.90
21033;DHT22;10675;47.976;7.824;2023-04-03T06:20:12;5.80;99.90
21033;DHT22;10675;47.976;7.824;2023-04-03T06:22:38;5.90;99.90
21033;DHT22;10675;47.976;7.824;2023-04-03T06:25:05;6.00;99.90
21033;DHT22;10675;47.976;7.824;2023-04-03T06:27:31;6.00;99.90
21033;DHT22;10675;47.976;7.824;2023-04-03T06:29:57;6.10;99.90
21033;DHT22;10675;47.976;7.824;2023-04-03T06:32:22;6.30;99.90
21033;DHT22;10675;47.976;7.824;2023-04-03T06:34:48;6.30;99.90
21033;DHT22;10675;47.976;7.824;2023-04-03T06:37:19;6.40;99.90
21033;DHT22;10675;47.976;7.824;2023-04-03T06:39:45;6.50;99.90
21033;DHT22;10675;47.976;7.824;2023-04-03T06:42:11;6.60;99.90
21033;DHT22;10675;47.976;7.824;2023-04-03T06:44:37;6.50;99.90
21033;DHT22;10675;47.976;7.824;2023-04-03T06:47:03;6.60;99.90
21033;DHT22;10675;47.976;7.824;2023-04-03T06:49:28;6.70;99.90
21033;DHT22;10675;47.976;7.824;2023-04-03T06:51:55;6.80;99.90
21033;DHT22;10675;47.976;7.824;2023-04-03T06:54:22;6.80;99.90
21033;DHT22;10675;47.976;7.824;2023-04-03T06:56:48;6.90;99.90
21033;DHT22;10675;47.976;7.824;2023-04-03T06:59:14;6.80;99.90
21033;DHT22;10675;47.976;7.824;2023-04-03T07:01:40;6.90;99.90
21033;DHT22;10675;47.976;7.824;2023-04-03T07:04:06;7.30;99.90
21033;DHT22;10675;47.976;7.824;2023-04-03T07:06:33;7.70;99.90
21033;DHT22;10675;47.976;7.824;2023-04-03T07:08:59;7.50;99.90
21033;DHT22;10675;47.976;7.824;2023-04-03T07:11:25;7.60;99.90
21033;DHT22;10675;47.976;7.824;2023-04-03T07:13:51;7.40;99.90
21033;DHT22;10675;47.976;7.824;2023-04-03T07:16:17;7.50;99.90
21033;DHT22;10675;47.976;7.824;2023-04-03T07:18:42;7.30;99.90
21033;DHT22;10675;47.976;7.824;2023-04-03T07:21:08;7.20;99.90
21033;DHT22;10675;47.976;7.824;2023-04-03T07:23:33;7.20;99.90
21033;DHT22;10675;47.976;7.824;2023-04-03T07:25:59;7.30;99.90
21033;DHT22;10675;47.976;7.824;2023-04-03T07:28:24;7.50;99.90
21033;DHT22;10675;47.976;7.824;2023-04-03T07:31:00;7.50;99.90
21033;DHT22;10675;47.976;7.824;2023-04-03T07:33:26;7.50;99.90
21033;DHT22;10675;47.976;7.824;2023-04-03T07:35:52;7.70;99.90
21033;DHT22;10675;47.976;7.824;2023-04-03T07:38:17;7.60;99.60
21033;DHT22;10675;47.976;7.824;2023-04-03T07:43:11;7.70;99.90
21033;DHT22;10675;47.976;7.824;2023-04-03T07:45:36;7.80;98.60
21033;DHT22;10675;47.976;7.824;2023-04-03T07:48:02;7.70;97.70
21033;DHT22;10675;47.976;7.824;2023-04-03T07:50:28;7.90;97.80
21033;DHT22;10675;47.976;7.824;2023-04-03T07:52:55;7.80;96.70
21033;DHT22;10675;47.976;7.824;2023-04-03T07:55:23;7.90;96.60
21033;DHT22;10675;47.976;7.824;2023-04-03T07:57:48;8.00;96.70
21033;DHT22;10675;47.976;7.824;2023-04-03T08:00:15;8.00;96.30
21033;DHT22;10675;47.976;7.824;2023-04-03T08:02:43;7.90;95.40
21033;DHT22;10675;47.976;7.824;2023-04-03T08:05:09;8.30;97.60
21033;DHT22;10675;47.976;7.824;2023-04-03T08:07:37;8.30;96.20
21033;DHT22;10675;47.976;7.824;2023-04-03T08:10:03;8.30;95.50
21033;DHT22;10675;47.976;7.824;2023-04-03T08:12:29;8.40;95.90
21033;DHT22;10675;47.976;7.824;2023-04-03T08:14:55;8.40;95.30
21033;DHT22;10675;47.976;7.824;2023-04-03T08:17:21;8.40;95.00
21033;DHT22;10675;47.976;7.824;2023-04-03T08:19:46;8.40;95.40
21033;DHT22;10675;47.976;7.824;2023-04-03T08:22:12;8.50;94.90
21033;DHT22;10675;47.976;7.824;2023-04-03T08:24:38;8.50;94.40
21033;DHT22;10675;47.976;7.824;2023-04-03T08:27:03;8.50;93.20
21033;DHT22;10675;47.976;7.824;2023-04-03T08:29:29;8.40;93.10
21033;DHT22;10675;47.976;7.824;2023-04-03T08:31:55;8.50;93.40
21033;DHT22;10675;47.976;7.824;2023-04-03T08:34:20;8.60;93.20
21033;DHT22;10675;47.976;7.824;2023-04-03T08:36:47;8.50;93.20
21033;DHT22;10675;47.976;7.824;2023-04-03T08:39:12;8.70;93.20
21033;DHT22;10675;47.976;7.824;2023-04-03T08:41:40;8.70;93.00
21033;DHT22;10675;47.976;7.824;2023-04-03T08:44:33;8.40;92.80
21033;DHT22;10675;47.976;7.824;2023-04-03T08:52:39;8.60;92.10
21033;DHT22;10675;47.976;7.824;2023-04-03T08:55:28;8.50;91.80
21033;DHT22;10675;47.976;7.824;2023-04-03T08:58:10;8.30;91.80
21033;DHT22;10675;47.976;7.824;2023-04-03T09:01:30;8.50;92.30
21033;DHT22;10675;47.976;7.824;2023-04-03T09:03:54;8.50;91.50
21033;DHT22;10675;47.976;7.824;2023-04-03T09:06:21;8.60;91.50
21033;DHT22;10675;47.976;7.824;2023-04-03T09:11:42;8.80;90.80
21033;DHT22;10675;47.976;7.824;2023-04-03T09:14:20;8.90;90.40
21033;DHT22;10675;47.976;7.824;2023-04-03T09:17:03;9.20;90.80
21033;DHT22;10675;47.976;7.824;2023-04-03T09:19:57;9.30;89.30
21033;DHT22;10675;47.976;7.824;2023-04-03T09:22:27;9.70;89.00
21033;DHT22;10675;47.976;7.824;2023-04-03T09:25:05;9.90;89.00
21033;DHT22;10675;47.976;7.824;2023-04-03T09:27:34;9.90;86.20
21033;DHT22;10675;47.976;7.824;2023-04-03T09:29:59;9.60;83.60
21033;DHT22;10675;47.976;7.824;2023-04-03T09:34:54;9.90;87.00
21033;DHT22;10675;47.976;7.824;2023-04-03T09:40:01;10.60;81.20
21033;DHT22;10675;47.976;7.824;2023-04-03T09:42:30;10.30;79.40
21033;DHT22;10675;47.976;7.824;2023-04-03T09:44:58;10.20;79.00
21033;DHT22;10675;47.976;7.824;2023-04-03T09:47:26;10.30;80.60
21033;DHT22;10675;47.976;7.824;2023-04-03T09:52:34;9.90;80.10
21033;DHT22;10675;47.976;7.824;2023-04-03T09:55:16;9.70;78.00
21033;DHT22;10675;47.976;7.824;2023-04-03T09:57:42;9.90;78.20
21033;DHT22;10675;47.976;7.824;2023-04-03T10:00:35;9.80;76.20
21033;DHT22;10675;47.976;7.824;2023-04-03T10:03:01;10.00;76.50
21033;DHT22;10675;47.976;7.824;2023-04-03T10:10:42;9.80;77.10
21033;DHT22;10675;47.976;7.824;2023-04-03T10:15:46;9.80;78.60
21033;DHT22;10675;47.976;7.824;2023-04-03T10:18:42;9.90;76.10
21033;DHT22;10675;47.976;7.824;2023-04-03T10:21:39;9.70;75.10
21033;DHT22;10675;47.976;7.824;2023-04-03T10:27:11;9.80;75.10
21033;DHT22;10675;47.976;7.824;2023-04-03T10:35:33;9.90;73.80
21033;DHT22;10675;47.976;7.824;2023-04-03T10:38:11;9.40;71.60
21033;DHT22;10675;47.976;7.824;2023-04-03T10:41:01;9.30;73.40
21033;DHT22;10675;47.976;7.824;2023-04-03T10:46:28;9.60;74.80
21033;DHT22;10675;47.976;7.824;2023-04-03T10:49:10;9.60;74.30
21033;DHT22;10675;47.976;7.824;2023-04-03T10:52:02;9.30;73.50
21033;DHT22;10675;47.976;7.824;2023-04-03T10:54:39;9.30;75.40
21033;DHT22;10675;47.976;7.824;2023-04-03T10:57:10;9.30;75.20
21033;DHT22;10675;47.976;7.824;2023-04-03T11:04:39;9.30;74.60
21033;DHT22;10675;47.976;7.824;2023-04-03T11:07:18;8.90;73.70
21033;DHT22;10675;47.976;7.824;2023-04-03T11:09:50;9.00;75.10
21033;DHT22;10675;47.976;7.824;2023-04-03T11:12:24;9.20;74.00
21033;DHT22;10675;47.976;7.824;2023-04-03T11:14:51;9.20;75.10
21033;DHT22;10675;47.976;7.824;2023-04-03T11:22:29;9.00;75.40
21033;DHT22;10675;47.976;7.824;2023-04-03T11:25:03;9.10;76.60
21033;DHT22;10675;47.976;7.824;2023-04-03T11:27:38;9.40;78.10
21033;DHT22;10675;47.976;7.824;2023-04-03T11:30:13;9.30;77.70
21033;DHT22;10675;47.976;7.824;2023-04-03T11:33:21;9.50;75.00
21033;DHT22;10675;47.976;7.824;2023-04-03T11:35:53;9.50;74.60
21033;DHT22;10675;47.976;7.824;2023-04-03T11:38:36;9.50;74.50
21033;DHT22;10675;47.976;7.824;2023-04-03T11:41:06;9.60;73.10
21033;DHT22;10675;47.976;7.824;2023-04-03T11:43:33;9.60;74.30
21033;DHT22;10675;47.976;7.824;2023-04-03T11:53:42;9.20;75.40
21033;DHT22;10675;47.976;7.824;2023-04-03T12:01:56;10.00;76.20
21033;DHT22;10675;47.976;7.824;2023-04-03T12:04:25;10.00;74.00
21033;DHT22;10675;47.976;7.824;2023-04-03T12:06:58;9.90;74.60
21033;DHT22;10675;47.976;7.824;2023-04-03T12:12:32;10.20;72.60
21033;DHT22;10675;47.976;7.824;2023-04-03T12:15:41;10.50;73.00
21033;DHT22;10675;47.976;7.824;2023-04-03T12:18:32;10.40;72.80
21033;DHT22;10675;47.976;7.824;2023-04-03T12:21:04;10.40;72.00
21033;DHT22;10675;47.976;7.824;2023-04-03T12:23:35;10.30;73.30
21033;DHT22;10675;47.976;7.824;2023-04-03T12:26:04;10.30;72.00
21033;DHT22;10675;47.976;7.824;2023-04-03T12:28:41;10.00;71.70
21033;DHT22;10675;47.976;7.824;2023-04-03T12:31:10;9.90;72.00
21033;DHT22;10675;47.976;7.824;2023-04-03T12:36:21;9.90;73.50
21033;DHT22;10675;47.976;7.824;2023-04-03T12:39:03;9.90;74.30
21033;DHT22;10675;47.976;7.824;2023-04-03T12:45:20;9.60;72.50
21033;DHT22;10675;47.976;7.824;2023-04-03T12:47:52;9.70;73.90
21033;DHT22;10675;47.976;7.824;2023-04-03T12:50:22;9.60;74.30
21033;DHT22;10675;47.976;7.824;2023-04-03T12:55:39;9.70;72.50
21033;DHT22;10675;47.976;7.824;2023-04-03T12:58:25;9.80;71.70
21033;DHT22;10675;47.976;7.824;2023-04-03T13:03:28;9.60;70.20
21033;DHT22;10675;47.976;7.824;2023-04-03T13:06:00;9.70;72.00
21033;DHT22;10675;47.976;7.824;2023-04-03T13:08:27;9.80;73.80
21033;DHT22;10675;47.976;7.824;2023-04-03T13:11:01;9.80;72.90
21033;DHT22;10675;47.976;7.824;2023-04-03T13:13:28;9.90;73.80
21033;DHT22;10675;47.976;7.824;2023-04-03T13:15:54;9.60;71.90
21033;DHT22;10675;47.976;7.824;2023-04-03T13:20:52;9.60;74.20
21033;DHT22;10675;47.976;7.824;2023-04-03T13:23:19;9.60;73.50
21033;DHT22;10675;47.976;7.824;2023-04-03T13:25:46;9.60;73.10
21033;DHT22;10675;47.976;7.824;2023-04-03T13:28:23;9.70;72.50
21033;DHT22;10675;47.976;7.824;2023-04-03T13:33:34;9.70;71.50
21033;DHT22;10675;47.976;7.824;2023-04-03T13:36:21;9.70;72.00
21033;DHT22;10675;47.976;7.824;2023-04-03T13:38:59;9.80;73.50
21033;DHT22;10675;47.976;7.824;2023-04-03T13:41:36;10.00;73.10
21033;DHT22;10675;47.976;7.824;2023-04-03T13:46:57;9.70;72.20
21033;DHT22;10675;47.976;7.824;2023-04-03T13:51:52;9.60;72.80
21033;DHT22;10675;47.976;7.824;2023-04-03T13:54:21;9.70;73.20
21033;DHT22;10675;47.976;7.824;2023-04-03T13:56:53;9.60;72.20
21033;DHT22;10675;47.976;7.824;2023-04-03T13:59:23;9.60;72.60
21033;DHT22;10675;47.976;7.824;2023-04-03T14:04:31;9.70;72.20
21033;DHT22;10675;47.976;7.824;2023-04-03T14:06:57;9.80;73.30
21033;DHT22;10675;47.976;7.824;2023-04-03T14:09:24;9.90;72.40
21033;DHT22;10675;47.976;7.824;2023-04-03T14:11:54;9.70;70.80
21033;DHT22;10675;47.976;7.824;2023-04-03T14:14:27;9.70;71.40
21033;DHT22;10675;47.976;7.824;2023-04-03T14:16:56;9.70;71.10
21033;DHT22;10675;47.976;7.824;2023-04-03T14:19:27;9.60;69.80
21033;DHT22;10675;47.976;7.824;2023-04-03T14:21:54;9.40;71.00
21033;DHT22;10675;47.976;7.824;2023-04-03T14:24:20;9.60;70.90
21033;DHT22;10675;47.976;7.824;2023-04-03T14:26:47;9.50;70.50
21033;DHT22;10675;47.976;7.824;2023-04-03T14:29:14;9.50;70.90
21033;DHT22;10675;47.976;7.824;2023-04-03T14:31:42;9.20;69.30
21033;DHT22;10675;47.976;7.824;2023-04-03T14:34:10;9.30;71.60
21033;DHT22;10675;47.976;7.824;2023-04-03T14:36:35;9.30;71.00
21033;DHT22;10675;47.976;7.824;2023-04-03T14:39:03;9.40;71.90
21033;DHT22;10675;47.976;7.824;2023-04-03T14:41:29;9.40;70.90
21033;DHT22;10675;47.976;7.824;2023-04-03T14:43:54;9.30;70.10
21033;DHT22;10675;47.976;7.824;2023-04-03T14:46:29;9.30;70.70
21033;DHT22;10675;47.976;7.824;2023-04-03T14:48:55;9.40;71.90
21033;DHT22;10675;47.976;7.824;2023-04-03T14:51:21;9.50;72.60
21033;DHT22;10675;47.976;7.824;2023-04-03T14:53:48;9.50;71.60
21033;DHT22;10675;47.976;7.824;2023-04-03T14:56:23;9.40;70.70
21033;DHT22;10675;47.976;7.824;2023-04-03T14:58:55;9.40;71.40
21033;DHT22;10675;47.976;7.824;2023-04-03T15:01:21;9.30;70.60
21033;DHT22;10675;47.976;7.824;2023-04-03T15:03:47;9.30;71.40
21033;DHT22;10675;47.976;7.824;2023-04-03T15:06:14;9.20;72.00
21033;DHT22;10675;47.976;7.824;2023-04-03T15:08:40;9.20;71.40
21033;DHT22;10675;47.976;7.824;2023-04-03T15:11:07;9.10;71.00
21033;DHT22;10675;47.976;7.824;2023-04-03T15:13:33;9.00;72.00
21033;DHT22;10675;47.976;7.824;2023-04-03T15:15:58;9.00;71.80
21033;DHT22;10675;47.976;7.824;2023-04-03T15:18:27;9.00;70.80
21033;DHT22;10675;47.976;7.824;2023-04-03T15:20:53;8.90;70.50
21033;DHT22;10675;47.976;7.824;2023-04-03T15:23:20;9.00;68.70
21033;DHT22;10675;47.976;7.824;2023-04-03T15:25:51;9.00;70.50
21033;DHT22;10675;47.976;7.824;2023-04-03T15:28:38;9.70;70.10
21033;DHT22;10675;47.976;7.824;2023-04-03T15:31:05;9.00;69.30
21033;DHT22;10675;47.976;7.824;2023-04-03T15:33:34;9.00;71.20
21033;DHT22;10675;47.976;7.824;2023-04-03T15:36:00;9.10;72.00
21033;DHT22;10675;47.976;7.824;2023-04-03T15:38:25;9.10;70.40
21033;DHT22;10675;47.976;7.824;2023-04-03T15:40:51;9.00;70.50
21033;DHT22;10675;47.976;7.824;2023-04-03T15:43:16;9.10;70.40
21033;DHT22;10675;47.976;7.824;2023-04-03T15:45:42;9.00;68.60
21033;DHT22;10675;47.976;7.824;2023-04-03T15:48:09;9.20;70.40
21033;DHT22;10675;47.976;7.824;2023-04-03T15:50:35;9.10;68.20
21033;DHT22;10675;47.976;7.824;2023-04-03T15:53:01;9.00;69.00
21033;DHT22;10675;47.976;7.824;2023-04-03T15:55:30;8.80;68.60
21033;DHT22;10675;47.976;7.824;2023-04-03T15:57:56;8.70;69.90
21033;DHT22;10675;47.976;7.824;2023-04-03T16:00:22;8.70;69.60
21033;DHT22;10675;47.976;7.824;2023-04-03T16:02:50;8.70;70.10
21033;DHT22;10675;47.976;7.824;2023-04-03T16:05:17;8.80;71.00
21033;DHT22;10675;47.976;7.824;2023-04-03T16:07:43;8.80;70.30
21033;DHT22;10675;47.976;7.824;2023-04-03T16:10:11;8.70;68.30
21033;DHT22;10675;47.976;7.824;2023-04-03T16:12:38;8.70;69.30
21033;DHT22;10675;47.976;7.824;2023-04-03T16:15:04;8.60;68.50
21033;DHT22;10675;47.976;7.824;2023-04-03T16:17:31;8.50;69.40
21033;DHT22;10675;47.976;7.824;2023-04-03T16:19:57;8.50;69.50
21033;DHT22;10675;47.976;7.824;2023-04-03T16:22:25;8.40;68.50
21033;DHT22;10675;47.976;7.824;2023-04-03T16:24:51;8.30;67.60
21033;DHT22;10675;47.976;7.824;2023-04-03T16:27:17;8.40;68.50
21033;DHT22;10675;47.976;7.824;2023-04-03T16:29:42;8.30;68.30
21033;DHT22;10675;47.976;7.824;2023-04-03T16:32:08;8.10;67.30
21033;DHT22;10675;47.976;7.824;2023-04-03T16:34:34;8.20;68.10
21033;DHT22;10675;47.976;7.824;2023-04-03T16:37:00;8.30;68.30
21033;DHT22;10675;47.976;7.824;2023-04-03T16:39:26;8.30;68.40
21033;DHT22;10675;47.976;7.824;2023-04-03T16:41:51;8.10;68.10
21033;DHT22;10675;47.976;7.824;2023-04-03T16:44:17;8.10;68.70
21033;DHT22;10675;47.976;7.824;2023-04-03T16:46:42;8.10;66.80
21033;DHT22;10675;47.976;7.824;2023-04-03T16:49:08;8.10;68.40
21033;DHT22;10675;47.976;7.824;2023-04-03T16:51:33;8.10;69.20
21033;DHT22;10675;47.976;7.824;2023-04-03T16:53:59;8.10;67.70
21033;DHT22;10675;47.976;7.824;2023-04-03T16:56:25;8.20;68.50
21033;DHT22;10675;47.976;7.824;2023-04-03T16:58:53;8.20;70.30
21033;DHT22;10675;47.976;7.824;2023-04-03T17:01:21;8.10;69.10
21033;DHT22;10675;47.976;7.824;2023-04-03T17:03:47;8.10;68.90
21033;DHT22;10675;47.976;7.824;2023-04-03T17:06:17;8.10;68.80
21033;DHT22;10675;47.976;7.824;2023-04-03T17:08:47;8.00;69.30
21033;DHT22;10675;47.976;7.824;2023-04-03T17:11:13;7.90;68.80
21033;DHT22;10675;47.976;7.824;2023-04-03T17:13:39;8.00;70.50
21033;DHT22;10675;47.976;7.824;2023-04-03T17:16:08;8.00;69.00
21033;DHT22;10675;47.976;7.824;2023-04-03T17:18:34;7.90;70.10
21033;DHT22;10675;47.976;7.824;2023-04-03T17:21:01;7.90;70.60
21033;DHT22;10675;47.976;7.824;2023-04-03T17:23:28;7.90;71.20
21033;DHT22;10675;47.976;7.824;2023-04-03T17:25:54;8.00;73.40
21033;DHT22;10675;47.976;7.824;2023-04-03T17:28:23;8.00;73.50